Time;durP1;ratioP1;P1;durP2;ratioP2;P2;SDS_P1;SDS_P2;PMS_P1;PMS_P2;Temp;Humidity;BMP_temperature;BMP_pressure;BME280_temperature;BME280_humidity;BME280_pressure;Samples;Min_cycle;Max_cycle;Signal;HPM_P1;HPM_P2
2024/02/16 00:02:32;;;;;;;;;;;;;;;;;;;;;
2024/02/16 00:05:13;;;;;;;5.60;4.30;;;;;;;11.06;72.82;95303.19;4917714;29;20270;-84
2024/02/16 00:07:50;;;;;;;4.83;4.33;;;;;;;11.07;72.46;95293.69;4918087;29;20210;-84
2024/02/16 00:10:19;;;;;;;5.67;4.33;;;;;;;11.08;72.88;95293.50;4917585;29;20226;-84
2024/02/16 00:12:49;;;;;;;4.97;4.20;;;;;;;11.14;72.31;95284.25;4917979;29;20642;-85
2024/02/16 00:15:15;;;;;;;4.43;4.03;;;;;;;11.14;72.18;95279.09;4918157;29;20225;-84
2024/02/16 00:17:44;;;;;;;4.87;4.10;;;;;;;11.19;71.65;95270.75;4916760;29;20206;-84
2024/02/16 00:20:12;;;;;;;4.30;3.90;;;;;;;11.22;71.48;95257.50;4918770;29;20316;-85
2024/02/16 00:22:38;;;;;;;5.07;3.80;;;;;;;11.18;71.08;95227.94;4917490;29;20214;-83
2024/02/16 00:25:05;;;;;;;7.00;4.30;;;;;;;10.96;71.53;95238.31;4917498;29;20270;-84
2024/02/16 00:27:33;;;;;;;4.43;3.90;;;;;;;10.77;72.76;95269.88;4917511;29;20254;-84
2024/02/16 00:30:03;;;;;;;5.00;4.03;;;;;;;10.77;72.76;95277.59;4918189;29;20241;-85
2024/02/16 00:32:30;;;;;;;4.13;3.73;;;;;;;10.82;72.68;95271.88;4917940;29;20665;-84
2024/02/16 00:34:58;;;;;;;4.70;4.30;;;;;;;10.88;72.19;95266.78;4916691;29;20710;-84
2024/02/16 00:37:24;;;;;;;5.10;3.90;;;;;;;10.96;71.76;95245.25;4917693;29;20218;-85
2024/02/16 00:39:52;;;;;;;5.40;3.97;;;;;;;11.00;71.42;95236.16;4917641;29;20725;-84
2024/02/16 00:42:19;;;;;;;4.43;4.03;;;;;;;10.87;71.98;95243.78;4916714;29;20222;-85
2024/02/16 00:44:45;;;;;;;4.00;3.60;;;;;;;10.84;72.06;95259.59;4917070;29;20209;-84
2024/02/16 00:47:12;;;;;;;4.23;3.90;;;;;;;10.84;72.01;95268.13;4917585;29;20286;-84
2024/02/16 00:49:38;;;;;;;4.93;4.07;;;;;;;10.87;71.95;95260.03;4915037;29;20226;-84
2024/02/16 00:52:05;;;;;;;4.37;3.80;;;;;;;10.93;71.72;95248.19;4917754;29;20261;-83
2024/02/16 00:54:35;;;;;;;5.13;4.23;;;;;;;10.82;71.54;95236.63;4920265;29;20230;-85
2024/02/16 00:57:02;;;;;;;5.73;4.30;;;;;;;10.77;72.10;95249.28;4921857;29;20210;-84
2024/02/16 00:59:28;;;;;;;4.53;4.03;;;;;;;10.81;72.10;95254.81;4930798;29;20226;-84
2024/02/16 01:01:56;;;;;;;3.97;3.50;;;;;;;10.85;71.87;95249.13;4928187;29;20228;-84
2024/02/16 01:04:23;;;;;;;4.53;3.97;;;;;;;10.90;71.67;95240.84;4923093;29;20234;-85
2024/02/16 01:06:49;;;;;;;5.00;4.50;;;;;;;10.90;71.71;95236.50;4917229;29;20241;-84
2024/02/16 01:09:16;;;;;;;5.00;3.87;;;;;;;10.87;71.78;95236.84;4920030;29;20230;-85
2024/02/16 01:11:43;;;;;;;5.30;3.80;;;;;;;10.88;71.69;95246.19;4921457;29;20234;-84
2024/02/16 01:14:09;;;;;;;5.17;3.80;;;;;;;10.86;71.94;95255.06;4921155;29;20281;-84
2024/02/16 01:16:36;;;;;;;4.90;4.20;;;;;;;10.72;72.43;95261.91;4919833;29;20238;-85
2024/02/16 01:19:06;;;;;;;4.77;4.20;;;;;;;10.66;72.94;95280.66;4919673;29;20305;-85
2024/02/16 01:21:36;;;;;;;4.43;4.03;;;;;;;10.67;73.04;95279.66;4918482;29;20624;-85
2024/02/16 01:24:03;;;;;;;5.60;3.80;;;;;;;10.75;72.82;95279.56;4908771;29;20293;-84
2024/02/16 01:26:31;;;;;;;5.23;3.70;;;;;;;10.85;72.38;95269.72;4918445;29;20210;-85
2024/02/16 01:28:58;;;;;;;5.70;4.37;;;;;;;10.95;72.00;95257.34;4919475;29;20250;-84
2024/02/16 01:31:25;;;;;;;3.90;3.60;;;;;;;10.93;72.15;95249.00;4918801;29;20237;-84
2024/02/16 01:33:52;;;;;;;4.23;3.70;;;;;;;10.96;71.66;95260.72;4918498;29;20218;-83
2024/02/16 01:36:20;;;;;;;4.03;3.63;;;;;;;10.96;71.33;95245.25;4918430;29;20737;-85
2024/02/16 01:41:55;;;;;;;4.20;3.80;;;;;;;10.88;71.20;95235.06;4931905;29;20264;-87
2024/02/16 01:47:28;;;;;;;5.73;4.03;;;;;;;10.88;71.38;95224.78;4934134;29;20197;-86
2024/02/16 01:50:05;;;;;;;4.40;4.00;;;;;;;10.86;71.07;95230.13;4923350;29;20819;-87
2024/02/16 01:52:42;;;;;;;4.07;3.67;;;;;;;10.90;71.40;95226.19;4935441;29;20205;-86
2024/02/16 01:55:18;;;;;;;4.97;4.00;;;;;;;10.91;71.18;95227.78;4930799;29;20664;-87
2024/02/16 01:58:07;;;;;;;4.23;3.83;;;;;;;10.85;71.30;95217.41;4934415;29;20568;-85
2024/02/16 02:00:52;;;;;;;5.67;3.97;;;;;;;10.85;70.95;95214.84;4934042;29;20209;-85
2024/02/16 02:03:19;;;;;;;4.87;4.23;;;;;;;10.76;71.38;95224.50;4934456;29;20209;-85
2024/02/16 02:05:48;;;;;;;4.33;3.93;;;;;;;10.71;71.56;95234.56;4934358;29;20631;-85
2024/02/16 02:08:16;;;;;;;5.27;4.10;;;;;;;10.72;71.76;95243.88;4934237;29;20699;-85
2024/02/16 02:10:43;;;;;;;4.20;3.80;;;;;;;10.70;71.82;95241.47;4932148;29;20673;-85
2024/02/16 02:13:10;;;;;;;4.33;3.93;;;;;;;10.78;71.18;95214.78;4925599;29;20736;-85
2024/02/16 02:15:36;;;;;;;3.83;3.53;;;;;;;10.78;71.54;95221.72;4934210;29;20225;-85
2024/02/16 02:18:03;;;;;;;5.03;3.80;;;;;;;10.74;71.35;95218.75;4929351;29;20202;-85
2024/02/16 02:20:29;;;;;;;3.93;3.63;;;;;;;10.78;71.30;95214.78;4936320;29;20225;-86
2024/02/16 02:22:57;;;;;;;5.03;3.60;;;;;;;10.80;70.96;95212.03;4938725;29;20998;-86
2024/02/16 02:25:24;;;;;;;4.17;3.50;;;;;;;10.81;71.04;95196.38;4938663;29;20709;-85
2024/02/16 02:27:51;;;;;;;5.50;3.47;;;;;;;10.82;70.49;95192.84;4937080;29;20201;-85
2024/02/16 02:30:17;;;;;;;7.33;3.70;;;;;;;10.81;70.63;95188.66;4938157;29;20234;-85
2024/02/16 02:32:44;;;;;;;4.33;3.83;;;;;;;10.81;70.30;95178.38;4937813;29;20314;-86
2024/02/16 02:35:11;;;;;;;4.53;4.13;;;;;;;10.67;70.53;95179.25;4937973;29;20232;-85
2024/02/16 02:37:38;;;;;;;5.10;3.87;;;;;;;10.58;71.36;95206.91;4937336;29;20233;-85
2024/02/16 02:40:08;;;;;;;4.20;3.80;;;;;;;10.60;71.21;95211.88;4937636;29;20260;-85
2024/02/16 02:42:34;;;;;;;4.17;3.77;;;;;;;10.54;71.46;95213.44;4934355;29;20692;-86
2024/02/16 02:45:01;;;;;;;3.93;3.63;;;;;;;10.60;70.88;95199.00;4938314;29;20202;-85
2024/02/16 02:47:28;;;;;;;5.00;3.73;;;;;;;10.60;70.59;95199.00;4937542;29;20206;-85
2024/02/16 02:49:54;;;;;;;4.20;3.80;;;;;;;10.69;70.84;95198.69;4937731;29;20236;-85
2024/02/16 02:52:21;;;;;;;4.50;3.63;;;;;;;10.75;70.59;95196.38;4937013;29;20268;-85
2024/02/16 02:54:48;;;;;;;4.27;3.83;;;;;;;10.82;70.24;95184.31;4937395;29;20226;-85
2024/02/16 02:57:15;;;;;;;5.70;3.67;;;;;;;10.83;70.16;95185.91;4937119;29;20210;-85
2024/02/16 02:59:42;;;;;;;5.17;3.40;;;;;;;10.83;69.87;95178.97;4935344;29;20300;-84
2024/02/16 03:02:08;;;;;;;4.53;3.47;;;;;;;10.76;70.06;95180.72;4937469;29;20220;-85
2024/02/16 03:04:35;;;;;;;4.23;3.60;;;;;;;10.73;69.95;95175.94;4937215;29;20205;-85
2024/02/16 03:07:02;;;;;;;3.93;3.53;;;;;;;10.63;69.71;95160.81;4936706;29;20205;-85
2024/02/16 03:09:29;;;;;;;3.90;3.50;;;;;;;10.54;69.85;95161.16;4936533;29;20359;-85
2024/02/16 03:11:55;;;;;;;4.30;3.50;;;;;;;10.50;68.97;95141.91;4941926;29;20232;-86
2024/02/16 03:14:23;;;;;;;3.57;3.00;;;;;;;10.41;68.78;95125.78;4930462;29;20221;-84
2024/02/16 03:16:50;;;;;;;4.43;3.13;;;;;;;10.32;68.76;95119.19;4937924;29;20205;-85
2024/02/16 03:19:16;;;;;;;5.87;3.20;;;;;;;10.30;68.73;95113.44;4939301;29;20265;-85
2024/02/16 03:21:43;;;;;;;4.30;3.13;;;;;;;10.33;69.10;95125.94;4938426;29;20206;-86
2024/02/16 03:24:10;;;;;;;3.30;3.00;;;;;;;10.36;68.81;95128.94;4939358;29;20197;-86
2024/02/16 03:26:36;;;;;;;4.97;3.23;;;;;;;10.37;68.57;95127.97;4938806;29;20210;-85
2024/02/16 03:29:03;;;;;;;4.47;3.20;;;;;;;10.37;68.71;95117.66;4938266;29;20285;-86
2024/02/16 03:31:30;;;;;;;3.93;3.20;;;;;;;10.38;68.59;95116.69;4935607;29;20264;-85
2024/02/16 03:33:57;;;;;;;4.33;3.00;;;;;;;10.32;68.58;95119.19;4937736;29;20871;-86
2024/02/16 03:36:24;;;;;;;5.63;3.23;;;;;;;10.27;68.73;95122.31;4937573;29;20197;-85
2024/02/16 03:38:51;;;;;;;4.00;3.10;;;;;;;10.16;68.97;95120.25;4937785;29;20673;-86
2024/02/16 03:41:20;;;;;;;4.93;3.13;;;;;;;10.15;69.00;95138.44;4938190;29;20205;-86
2024/02/16 03:43:46;;;;;;;3.57;2.80;;;;;;;10.16;69.30;95145.16;4935839;29;20209;-86
2024/02/16 03:46:13;;;;;;;3.97;3.27;;;;;;;10.23;69.20;95146.03;4936130;29;20209;-86
2024/02/16 03:48:40;;;;;;;7.70;3.10;;;;;;;10.30;69.08;95146.88;4935102;29;20221;-85
2024/02/16 03:51:07;;;;;;;3.17;2.70;;;;;;;10.35;68.65;95136.84;4920824;29;20207;-84
2024/02/16 03:53:33;;;;;;;3.23;2.73;;;;;;;10.31;68.91;95133.03;4938398;29;20209;-85
2024/02/16 03:56:00;;;;;;;4.90;3.13;;;;;;;10.27;68.40;95124.91;4937604;29;20231;-86
2024/02/16 03:58:27;;;;;;;3.20;2.90;;;;;;;10.23;68.59;95133.16;4937933;29;20269;-86
2024/02/16 04:00:53;;;;;;;4.03;3.17;;;;;;;10.21;68.79;95128.19;4937501;29;20813;-86
2024/02/16 04:03:20;;;;;;;4.17;2.93;;;;;;;10.12;68.91;95139.59;4935121;29;20248;-85
2024/02/16 04:05:48;;;;;;;3.70;3.10;;;;;;;10.09;68.76;95150.25;4937295;29;20257;-86
2024/02/16 04:08:14;;;;;;;3.50;3.20;;;;;;;10.05;69.02;95149.81;4937044;29;20213;-85
2024/02/16 04:10:40;;;;;;;3.10;2.80;;;;;;;10.07;69.44;95156.53;4929151;29;20197;-86
2024/02/16 04:13:07;;;;;;;5.03;3.30;;;;;;;10.03;69.66;95174.09;4936762;29;20205;-86
2024/02/16 04:15:33;;;;;;;3.67;3.20;;;;;;;10.11;69.41;95176.56;4937215;29;20288;-85
2024/02/16 04:18:00;;;;;;;5.87;3.30;;;;;;;10.19;69.05;95176.50;4937405;29;20209;-85
2024/02/16 04:20:26;;;;;;;6.10;3.00;;;;;;;10.27;69.09;95160.91;4935157;29;20277;-85
2024/02/16 04:22:54;;;;;;;4.20;2.83;;;;;;;10.33;68.42;95149.09;4920072;29;20291;-85
2024/02/16 04:25:20;;;;;;;3.10;2.73;;;;;;;10.34;68.24;95132.69;4922837;29;20232;-85
2024/02/16 04:27:47;;;;;;;3.23;2.80;;;;;;;10.32;68.14;95132.06;4936820;29;20268;-85
2024/02/16 04:30:13;;;;;;;4.00;3.10;;;;;;;10.33;67.93;95133.66;4935251;29;20217;-85
2024/02/16 04:32:40;;;;;;;6.30;2.80;;;;;;;10.30;67.98;95134.81;4935567;29;20250;-86
2024/02/16 04:35:11;;;;;;;4.30;3.07;;;;;;;10.29;68.27;95130.66;4934705;29;20281;-85
2024/02/16 04:37:38;;;;;;;3.20;2.90;;;;;;;10.32;68.04;95135.44;4933621;29;20288;-84
2024/02/16 04:40:11;;;;;;;3.30;2.70;;;;;;;10.28;68.34;95139.34;4936414;29;20386;-86
2024/02/16 04:42:38;;;;;;;4.03;3.03;;;;;;;10.29;68.40;95129.88;4935633;29;20879;-84
2024/02/16 04:45:05;;;;;;;5.40;3.07;;;;;;;10.29;67.96;95127.28;4936249;29;20624;-84
2024/02/16 04:47:32;;;;;;;2.93;2.60;;;;;;;10.29;67.92;95135.00;4936871;29;20680;-84
2024/02/16 04:49:58;;;;;;;4.33;2.73;;;;;;;10.30;67.94;95144.31;4937147;29;20236;-85
2024/02/16 04:52:25;;;;;;;3.13;2.50;;;;;;;10.34;68.11;95138.63;4934149;29;20217;-84
2024/02/16 04:54:51;;;;;;;6.97;2.63;;;;;;;10.39;68.19;95141.41;4937702;29;20285;-85
2024/02/16 04:57:20;;;;;;;5.73;2.67;;;;;;;10.45;67.97;95142.47;4936801;29;20237;-85
2024/02/16 04:59:47;;;;;;;4.03;2.60;;;;;;;10.49;67.67;95130.81;4937253;29;20643;-85
2024/02/16 05:02:13;;;;;;;4.57;2.70;;;;;;;10.43;67.82;95128.19;4936742;29;20782;-85
2024/02/16 05:04:40;;;;;;;3.47;2.53;;;;;;;10.32;68.19;95143.16;4936148;29;20582;-85
2024/02/16 05:07:07;;;;;;;4.93;2.60;;;;;;;10.33;68.55;95161.97;4927971;29;20214;-85
2024/02/16 05:09:35;;;;;;;3.37;2.50;;;;;;;10.35;68.46;95162.59;4931358;29;20313;-86
2024/02/16 05:12:02;;;;;;;3.93;2.70;;;;;;;10.34;68.59;95153.28;4937192;29;20261;-84
2024/02/16 05:14:30;;;;;;;3.53;2.40;;;;;;;10.33;68.66;95157.63;4936672;29;20202;-84
2024/02/16 05:17:00;;;;;;;7.20;2.60;;;;;;;10.39;68.23;95158.66;4937055;29;20261;-84
2024/02/16 05:19:30;;;;;;;2.70;2.50;;;;;;;10.47;68.38;95152.56;4941516;29;20241;-84
2024/02/16 05:21:56;;;;;;;4.27;2.63;;;;;;;10.53;67.96;95144.91;4941812;29;20209;-85
2024/02/16 05:24:23;;;;;;;4.40;2.47;;;;;;;10.50;68.85;95173.59;4937084;29;20256;-85
2024/02/16 05:26:52;;;;;;;3.47;2.70;;;;;;;10.49;68.79;95173.78;4941867;29;20201;-84
2024/02/16 05:29:18;;;;;;;3.50;2.63;;;;;;;10.45;68.79;95180.25;4941341;29;20366;-84
2024/02/16 05:31:51;;;;;;;2.63;2.43;;;;;;;10.44;68.83;95183.81;4940956;29;20264;-85
2024/02/16 05:34:17;;;;;;;2.97;2.53;;;;;;;10.47;68.92;95180.88;4939795;29;20205;-86
2024/02/16 05:36:44;;;;;;;2.93;2.60;;;;;;;10.40;68.86;95178.25;4940564;29;20229;-84
2024/02/16 05:39:20;;;;;;;4.10;2.73;;;;;;;10.36;69.47;95188.13;4939679;29;20230;-85
2024/02/16 05:41:48;;;;;;;3.10;2.57;;;;;;;10.39;69.16;95200.59;4937044;29;20200;-84
2024/02/16 05:44:17;;;;;;;3.20;2.90;;;;;;;10.43;69.27;95192.50;4938635;29;20385;-85
2024/02/16 05:47:19;;;;;;;5.00;3.33;;;;;;;10.45;69.04;95193.94;4938694;29;20205;-85
2024/02/16 06:12:57;;;;;;;5.40;3.37;;;;;;;10.52;69.46;95222.31;4848515;29;20333;-85
2024/02/16 06:16:21;;;;;;;3.33;2.73;;;;;;;10.49;69.37;95226.03;4852698;29;20251;-85
2024/02/16 06:25:54;;;;;;;3.60;2.93;;;;;;;10.52;69.15;95230.81;4897954;29;20266;-85
2024/02/16 06:28:44;;;;;;;4.47;2.97;;;;;;;10.56;69.05;95233.84;4913964;29;20580;-85
2024/02/16 06:31:17;;;;;;;4.63;2.87;;;;;;;10.53;69.26;95236.78;4945917;29;20240;-85
2024/02/16 06:51:10;;;;;;;3.80;2.50;;;;;;;10.55;68.05;95220.16;4891761;29;20301;-85
2024/02/16 07:15:40;;;;;;;3.03;2.60;;;;;;;10.89;65.28;95133.66;4923574;29;20221;-85
2024/02/16 07:21:30;;;;;;;;;;;;;;;;;;;;;
2024/02/16 07:37:15;;;;;;;3.77;2.33;;;;;;;12.12;61.54;94985.66;4693434;30;20280;-85
2024/02/16 07:40:26;;;;;;;3.27;2.20;;;;;;;12.04;61.70;94982.28;4748171;30;20232;-86
2024/02/16 07:43:21;;;;;;;6.50;2.50;;;;;;;12.03;61.97;95003.91;4878043;29;20293;-86
2024/02/16 07:46:12;;;;;;;3.47;2.50;;;;;;;12.06;62.05;95020.78;4917940;29;20314;-85
2024/02/16 07:49:06;;;;;;;6.70;2.57;;;;;;;12.09;62.11;95031.50;4914129;29;20226;-84
2024/02/16 07:51:52;;;;;;;3.47;2.27;;;;;;;12.12;62.38;95024.38;4837621;29;20701;-85
2024/02/16 07:54:19;;;;;;;7.00;2.70;;;;;;;12.06;61.90;95011.25;4837309;29;20757;-86
2024/02/16 08:00:31;;;;;;;5.73;2.40;;;;;;;12.08;62.19;95037.66;4830029;29;20235;-85
2024/02/16 08:03:02;;;;;;;5.50;2.30;;;;;;;12.11;61.41;94997.78;4861716;29;20228;-86
2024/02/16 08:09:02;;;;;;;10.17;2.93;;;;;;;12.20;61.40;94996.56;4901157;29;20240;-86
2024/02/16 08:11:32;;;;;;;4.03;2.47;;;;;;;12.23;62.26;95040.03;4867499;29;20226;-86
2024/02/16 08:14:08;;;;;;;6.13;3.33;;;;;;;12.27;62.79;95074.00;4895742;29;20249;-85
2024/02/16 08:19:36;;;;;;;10.80;6.67;;;;;;;12.37;61.77;95036.44;4895481;29;20234;-85
2024/02/16 08:34:31;;;;;;;;;;;;;;;;;;;;;
2024/02/16 08:37:13;;;;;;;8.47;3.37;;;;;;;12.73;60.45;94968.81;4894287;29;20238;-85
2024/02/16 08:44:02;;;;;;;9.13;3.30;;;;;;;12.87;58.93;94906.78;4735373;29;20881;-85
2024/02/16 09:00:17;;;;;;;5.77;2.73;;;;;;;13.46;56.49;94766.78;4886485;29;20248;-86
2024/02/16 09:03:16;;;;;;;3.43;2.40;;;;;;;13.51;56.44;94773.88;4906809;29;20594;-86
2024/02/16 09:06:26;;;;;;;5.27;2.50;;;;;;;13.56;56.47;94766.28;4827164;29;20213;-85
2024/02/16 09:09:12;;;;;;;5.80;2.20;;;;;;;13.69;55.98;94763.53;4770862;29;20652;-85
2024/02/16 09:12:42;;;;;;;3.37;2.13;;;;;;;13.80;55.45;94726.63;4876353;29;20449;-86
2024/02/16 09:28:44;;;;;;;3.78;2.00;;;;;;;14.28;53.00;94633.38;4753968;29;20765;-85
2024/02/16 09:31:54;;;;;;;5.07;2.40;;;;;;;14.33;53.23;94614.59;4765280;30;20223;-85
2024/02/16 09:35:13;;;;;;;2.08;1.80;;;;;;;14.41;52.78;94611.72;4785632;29;20265;-85
2024/02/16 09:44:33;;;;;;;6.53;2.20;;;;;;;15.05;51.34;94551.16;4850805;29;20694;-85
2024/02/16 09:47:30;;;;;;;;;;;;;;;;;;;;;
2024/02/16 09:50:26;;;;;;;10.15;2.00;;;;;;;16.20;49.08;94454.00;4919044;29;20221;-85
2024/02/16 09:56:33;;;;;;;3.30;1.88;;;;;;;16.80;46.78;94328.47;4909348;29;20204;-85
2024/02/16 09:59:31;;;;;;;1.85;1.42;;;;;;;17.00;45.57;94273.28;4888417;29;20600;-86
2024/02/16 10:02:48;;;;;;;;;;;;;;;;;;;;;
2024/02/16 10:05:30;;;;;;;3.28;1.52;;;;;;;17.29;44.50;94201.69;4803988;29;20308;-85
2024/02/16 10:08:11;;;;;;;3.35;1.63;;;;;;;17.52;44.98;94216.91;4832100;29;20206;-85
2024/02/16 10:11:24;;;;;;;3.28;1.83;;;;;;;17.68;43.72;94170.16;4917502;29;20238;-84
2024/02/16 10:49:11;;;;;;;;;;;;;;;;;;;;;
2024/02/16 11:05:15;;;;;;;16.13;14.55;;;;;;;19.47;40.16;94014.13;5023908;28;20206;-85
2024/02/16 11:29:23;;;;;;;3.97;1.92;;;;;;;19.58;41.32;94057.44;4919404;28;20231;-86
2024/02/16 11:32:27;;;;;;;6.25;1.75;;;;;;;19.74;40.86;94046.91;5009126;28;20211;-85
2024/02/16 11:42:41;;;;;;;;;;;;;;;;;;;;;
2024/02/16 11:49:15;;;;;;;2.47;1.70;;;;;;;20.02;41.14;94075.69;5002745;28;20238;-85
2024/02/16 11:55:19;;;;;;;1.33;1.17;;;;;;;19.98;41.15;94077.31;4983891;28;20211;-85
2024/02/16 11:57:58;;;;;;;3.90;3.47;;;;;;;20.06;41.37;94106.50;4988963;28;20206;-86
2024/02/16 12:00:33;;;;;;;1.50;1.40;;;;;;;19.96;40.87;94058.53;4976044;28;20216;-85
2024/02/16 12:03:00;;;;;;;2.10;1.65;;;;;;;20.01;41.51;94079.38;4984465;28;20262;-85
2024/02/16 12:05:30;;;;;;;3.13;1.83;;;;;;;20.07;41.49;94084.56;4984097;28;20879;-85
2024/02/16 12:08:12;;;;;;;1.80;1.50;;;;;;;19.90;41.80;94101.38;4995553;28;20225;-86
2024/02/16 12:10:43;;;;;;;1.88;1.52;;;;;;;19.72;41.91;94116.91;4995390;28;20239;-86
2024/02/16 12:13:10;;;;;;;2.17;1.70;;;;;;;19.54;42.39;94134.75;4976410;28;20215;-86
2024/02/16 12:15:56;;;;;;;3.83;1.88;;;;;;;19.31;42.54;94153.56;4975547;28;20204;-87
2024/02/16 12:18:34;;;;;;;2.45;1.40;;;;;;;19.21;43.37;94190.16;4975190;28;20738;-84
2024/02/16 12:21:10;;;;;;;2.10;1.52;;;;;;;19.11;43.88;94216.25;4977039;28;20203;-86
2024/02/16 12:24:29;;;;;;;1.67;1.35;;;;;;;19.05;44.01;94240.78;4991233;28;20199;-86
2024/02/16 12:27:23;;;;;;;1.90;1.33;;;;;;;18.98;44.13;94249.66;4972276;28;20212;-86
2024/02/16 12:29:59;;;;;;;2.70;1.60;;;;;;;18.82;43.82;94249.91;4974485;28;20228;-86
2024/02/16 12:32:45;;;;;;;1.90;1.30;;;;;;;18.72;44.15;94242.06;4985728;28;20207;-87
2024/02/16 12:35:54;;;;;;;3.55;1.45;;;;;;;18.70;44.60;94278.03;4986471;28;20206;-86
2024/02/16 12:38:28;;;;;;;2.38;1.40;;;;;;;18.75;44.57;94281.44;4977328;28;20262;-85
2024/02/16 12:41:08;;;;;;;2.55;1.30;;;;;;;18.70;44.40;94267.59;4991115;28;20203;-85
2024/02/16 12:46:38;;;;;;;1.50;1.40;;;;;;;18.77;44.69;94295.00;4994253;28;20592;-85
2024/02/16 12:49:15;;;;;;;1.85;1.60;;;;;;;18.82;44.82;94299.44;4993624;28;20227;-86
2024/02/16 12:51:58;;;;;;;5.40;1.55;;;;;;;18.98;44.87;94293.22;4993318;28;20202;-86
2024/02/16 12:54:42;;;;;;;3.55;1.33;;;;;;;18.96;42.71;94157.84;4993633;28;20186;-86
2024/02/16 12:57:50;;;;;;;1.42;1.20;;;;;;;19.12;42.21;94124.66;4990990;28;20578;-85
2024/02/16 13:00:27;;;;;;;3.88;3.47;;;;;;;19.28;42.19;94120.19;4973869;28;20799;-86
2024/02/16 13:02:56;;;;;;;3.58;2.40;;;;;;;19.44;41.97;94111.25;4991487;28;20229;-86
2024/02/16 13:05:40;;;;;;;2.60;1.30;;;;;;;19.68;41.87;94114.03;4992337;28;20314;-85
2024/02/16 13:08:12;;;;;;;2.47;1.30;;;;;;;19.76;41.42;94089.97;4993450;28;20227;-86
2024/02/16 13:10:42;;;;;;;5.70;1.70;;;;;;;19.86;41.22;94099.59;4991205;28;20227;-86
2024/02/16 13:13:09;;;;;;;2.38;1.42;;;;;;;19.88;41.43;94100.88;4987300;28;20865;-86
2024/02/16 13:18:26;;;;;;;2.70;1.80;;;;;;;20.11;41.81;94114.31;4971486;28;20215;-85
2024/02/16 13:20:52;;;;;;;5.18;4.65;;;;;;;20.13;42.36;94165.28;4974701;28;20757;-85
2024/02/16 13:23:45;;;;;;;4.90;2.90;;;;;;;20.25;42.93;94204.91;4992588;28;20208;-86
2024/02/16 13:26:32;;;;;;;3.13;1.70;;;;;;;20.46;42.56;94199.59;4990491;28;20203;-86
2024/02/16 13:29:01;;;;;;;2.30;1.40;;;;;;;20.47;42.69;94214.22;4992181;28;20596;-86
2024/02/16 13:31:36;;;;;;;3.03;1.83;;;;;;;20.47;42.79;94229.91;4991942;28;20258;-86
2024/02/16 13:34:25;;;;;;;2.08;1.63;;;;;;;20.30;42.95;94202.28;4986277;28;20200;-86
2024/02/16 13:36:58;;;;;;;3.65;1.50;;;;;;;20.16;42.87;94211.00;4972587;28;20212;-85
2024/02/16 13:39:47;;;;;;;3.30;1.73;;;;;;;20.06;43.82;94255.44;4972795;28;20220;-86
2024/02/16 13:42:37;;;;;;;3.40;1.90;;;;;;;19.84;44.37;94315.88;4971739;28;20295;-85
2024/02/16 13:48:15;;;;;;;3.67;1.95;;;;;;;19.61;45.20;94364.22;4989486;28;20238;-86
2024/02/16 13:50:54;;;;;;;3.33;2.35;;;;;;;19.50;45.66;94373.88;5006525;28;20227;-86
2024/02/16 13:53:28;;;;;;;4.55;1.67;;;;;;;19.32;45.20;94374.38;4992196;28;20624;-86
2024/02/16 13:56:05;;;;;;;1.80;1.60;;;;;;;19.12;45.07;94335.22;4994031;28;20211;-85
2024/02/16 13:58:39;;;;;;;1.95;1.50;;;;;;;18.98;45.55;94353.19;4983070;28;20230;-86
2024/02/16 14:01:15;;;;;;;2.88;1.65;;;;;;;18.80;45.98;94385.78;4991445;28;20203;-86
2024/02/16 14:03:54;;;;;;;2.35;1.40;;;;;;;18.52;45.81;94386.94;4992429;28;20203;-86
2024/02/16 14:06:23;;;;;;;2.90;1.85;;;;;;;18.48;46.04;94392.91;4992832;28;20214;-85
2024/02/16 14:08:52;;;;;;;6.53;2.60;;;;;;;18.45;46.17;94422.09;4994113;28;20230;-84
2024/02/16 14:11:37;;;;;;;4.90;3.10;;;;;;;18.34;46.86;94444.72;4988415;28;20227;-84
2024/02/16 14:14:11;;;;;;;6.03;4.30;;;;;;;18.28;47.00;94463.94;4972715;28;20221;-85
2024/02/16 14:16:41;;;;;;;4.55;2.38;;;;;;;18.24;46.94;94466.28;4978131;28;20670;-84
2024/02/16 14:19:33;;;;;;;3.85;2.22;;;;;;;18.23;46.96;94462.13;4992427;28;20224;-85
2024/02/16 14:22:06;;;;;;;3.67;1.90;;;;;;;18.19;47.01;94474.06;4985677;28;20287;-85
2024/02/16 14:24:33;;;;;;;4.25;1.80;;;;;;;18.20;47.27;94480.84;4991463;28;20234;-84
2024/02/16 14:27:06;;;;;;;2.28;1.60;;;;;;;18.24;47.33;94494.97;4993403;28;20200;-85
2024/02/16 14:29:46;;;;;;;5.22;1.77;;;;;;;18.15;47.50;94487.84;4984640;28;20255;-85
2024/02/16 14:32:17;;;;;;;2.72;1.80;;;;;;;18.24;47.92;94500.16;4990128;28;20207;-85
2024/02/16 14:35:15;;;;;;;3.70;1.85;;;;;;;18.49;47.43;94504.72;4990206;28;20207;-85
2024/02/16 14:38:14;;;;;;;;;;;;;;;;;;;;;
2024/02/16 14:40:54;;;;;;;2.95;2.00;;;;;;;18.80;47.03;94482.25;4991207;28;20760;-84
2024/02/16 14:43:29;;;;;;;3.13;1.92;;;;;;;18.85;46.71;94471.06;4989582;28;20614;-84
2024/02/16 14:46:29;;;;;;;4.30;1.67;;;;;;;18.79;46.58;94461.66;4990373;28;20682;-85
2024/02/16 14:48:57;;;;;;;3.28;1.75;;;;;;;18.79;46.94;94480.69;4986192;28;20314;-84
2024/02/16 14:51:56;;;;;;;4.05;1.65;;;;;;;18.73;47.14;94480.91;4986494;28;20214;-84
2024/02/16 14:57:57;;;;;;;4.43;1.90;;;;;;;18.83;47.33;94520.88;4888555;28;20214;-84
2024/02/16 15:00:26;;;;;;;2.58;1.90;;;;;;;18.74;47.37;94511.94;4973619;28;20227;-84
2024/02/16 15:06:29;;;;;;;5.97;1.80;;;;;;;18.67;47.49;94513.22;4991031;28;20223;-84
2024/02/16 15:09:07;;;;;;;1.88;1.60;;;;;;;18.57;47.35;94530.34;4974097;28;20729;-84
2024/02/16 15:14:24;;;;;;;6.40;1.90;;;;;;;18.32;47.63;94530.16;4975793;28;20287;-84
2024/02/16 15:17:08;;;;;;;5.20;1.83;;;;;;;18.24;47.91;94543.69;4985062;28;20200;-83
2024/02/16 15:19:48;;;;;;;7.60;1.98;;;;;;;18.06;48.51;94570.09;4996493;28;20224;-84
2024/02/16 15:22:27;;;;;;;4.20;2.00;;;;;;;17.94;48.59;94578.84;4992717;28;20270;-84
2024/02/16 15:24:54;;;;;;;3.83;2.15;;;;;;;17.89;48.91;94598.88;4988023;28;20200;-83
2024/02/16 15:27:23;;;;;;;6.15;2.00;;;;;;;17.84;49.03;94611.81;5000333;28;20410;-83
2024/02/16 15:29:59;;;;;;;3.15;1.73;;;;;;;17.73;48.91;94626.53;5005126;28;20223;-84
2024/02/16 15:32:48;;;;;;;4.43;1.67;;;;;;;17.56;49.70;94638.81;5000135;28;20207;-84
2024/02/16 15:35:28;;;;;;;3.67;1.90;;;;;;;17.44;49.57;94635.56;5003478;28;20208;-84
2024/02/16 15:38:08;;;;;;;2.40;1.65;;;;;;;17.33;49.63;94646.84;4995958;28;20204;-84
2024/02/16 15:40:51;;;;;;;2.20;1.60;;;;;;;17.22;49.74;94651.16;5002006;28;20258;-84
2024/02/16 15:43:33;;;;;;;2.80;1.77;;;;;;;17.11;49.79;94665.84;5002579;28;20196;-84
2024/02/16 15:46:02;;;;;;;4.00;1.70;;;;;;;17.08;49.87;94673.34;5001024;28;20268;-84
2024/02/16 15:49:01;;;;;;;4.03;2.00;;;;;;;17.06;50.10;94683.19;4992444;28;20265;-83
2024/02/16 15:51:48;;;;;;;4.65;1.67;;;;;;;16.97;50.11;94685.38;5002303;28;20221;-84
2024/02/16 15:54:30;;;;;;;3.28;1.83;;;;;;;16.97;50.21;94702.81;5001042;28;20749;-85
2024/02/16 16:00:14;;;;;;;4.05;2.00;;;;;;;16.86;50.30;94718.25;4956256;28;20290;-83
2024/02/16 16:03:01;;;;;;;3.35;1.60;;;;;;;16.82;50.81;94737.94;4999913;28;20211;-83
2024/02/16 16:11:20;;;;;;;3.47;1.83;;;;;;;16.72;50.76;94761.19;4994609;28;20250;-83
2024/02/16 16:13:56;;;;;;;4.13;1.92;;;;;;;16.64;51.05;94766.75;4981380;28;20231;-84
2024/02/16 16:16:30;;;;;;;4.97;1.70;;;;;;;16.52;51.14;94782.38;4989484;28;20200;-83
2024/02/16 16:19:19;;;;;;;2.90;1.75;;;;;;;16.51;51.16;94788.59;4998486;28;20306;-84
2024/02/16 16:21:51;;;;;;;3.33;1.70;;;;;;;16.49;51.53;94797.66;4993224;28;20282;-84
2024/02/16 16:24:27;;;;;;;3.63;1.95;;;;;;;16.47;51.50;94802.28;4980743;28;20211;-85
2024/02/16 16:26:54;;;;;;;4.60;2.10;;;;;;;16.43;51.89;94806.38;4994624;28;20586;-83
2024/02/16 16:29:23;;;;;;;3.90;1.67;;;;;;;16.41;51.87;94821.41;4998441;28;20710;-83
2024/02/16 16:31:55;;;;;;;5.15;2.10;;;;;;;16.40;51.75;94814.63;4997956;28;20200;-84
2024/02/16 16:34:36;;;;;;;5.65;2.05;;;;;;;16.37;52.23;94831.44;4998444;28;20211;-83
2024/02/16 16:37:02;;;;;;;3.30;2.00;;;;;;;16.37;52.02;94834.03;4987294;28;20674;-84
2024/02/16 16:39:48;;;;;;;2.60;2.13;;;;;;;16.34;52.18;94839.72;4978731;28;20220;-84
2024/02/16 16:42:20;;;;;;;3.53;1.92;;;;;;;16.32;52.06;94848.78;4970168;28;20235;-83
2024/02/16 16:47:48;;;;;;;7.93;2.15;;;;;;;16.27;52.47;94872.03;4975015;28;20295;-84
2024/02/16 16:50:21;;;;;;;5.68;2.10;;;;;;;16.24;52.69;94892.25;4978685;28;20265;-83
2024/02/16 16:52:48;;;;;;;4.65;2.45;;;;;;;16.18;52.76;94892.38;4979049;28;20243;-84